createdAt,value
2022-12-25T00:02:16.105Z,8.21
2022-12-25T00:04:44.011Z,8.20
2022-12-25T00:07:11.880Z,8.16
2022-12-25T00:09:39.634Z,8.14
2022-12-25T00:12:07.729Z,8.15
2022-12-25T00:14:35.772Z,8.17
2022-12-25T00:17:03.731Z,8.17
2022-12-25T00:19:31.497Z,8.14
2022-12-25T00:21:59.160Z,8.14
2022-12-25T00:24:26.876Z,8.14
2022-12-25T00:26:54.913Z,8.13
2022-12-25T00:29:22.811Z,8.11
2022-12-25T00:31:50.557Z,8.12
2022-12-25T00:34:18.962Z,8.17
2022-12-25T00:36:46.587Z,8.20
2022-12-25T00:39:14.301Z,8.26
2022-12-25T00:41:59.555Z,8.34
2022-12-25T00:44:27.280Z,8.42
2022-12-25T00:46:55.017Z,8.49
2022-12-25T00:49:23.069Z,8.54
2022-12-25T00:51:50.715Z,8.59
2022-12-25T00:54:18.361Z,8.66
2022-12-25T00:56:46.261Z,8.73
2022-12-25T00:59:13.891Z,8.78
2022-12-25T01:01:42.179Z,8.81
2022-12-25T01:04:10.175Z,8.83
2022-12-25T01:06:37.823Z,8.87
2022-12-25T01:09:22.888Z,8.90
2022-12-25T01:11:51.198Z,8.92
2022-12-25T01:14:18.808Z,8.94
2022-12-25T01:16:46.562Z,8.92
2022-12-25T01:19:14.312Z,8.94
2022-12-25T01:21:41.958Z,8.95
2022-12-25T01:24:09.892Z,8.98
2022-12-25T01:26:37.581Z,9.03
2022-12-25T01:29:05.196Z,9.08
2022-12-25T01:31:32.952Z,9.12
2022-12-25T01:34:00.652Z,9.16
2022-12-25T01:36:29.701Z,9.21
2022-12-25T01:38:57.371Z,9.25
2022-12-25T01:41:24.984Z,9.31
2022-12-25T01:43:52.613Z,9.37
2022-12-25T01:46:20.395Z,9.41
2022-12-25T01:48:48.067Z,9.44
2022-12-25T01:51:15.757Z,9.48
2022-12-25T01:53:43.427Z,9.53
2022-12-25T01:56:11.022Z,9.57
2022-12-25T01:58:39.019Z,9.60
2022-12-25T02:01:07.355Z,9.65
2022-12-25T02:03:35.062Z,9.68
2022-12-25T02:06:02.693Z,9.69
2022-12-25T02:08:30.377Z,9.72
2022-12-25T02:10:57.970Z,9.73
2022-12-25T02:13:26.229Z,9.74
2022-12-25T02:15:53.909Z,9.75
2022-12-25T02:18:21.513Z,9.79
2022-12-25T02:20:49.117Z,9.83
2022-12-25T02:23:16.842Z,9.88
2022-12-25T02:25:44.977Z,9.92
2022-12-25T02:28:12.560Z,9.95
2022-12-25T02:30:40.224Z,9.99
2022-12-25T02:33:21.672Z,10.01
2022-12-25T02:35:49.722Z,10.03
2022-12-25T02:38:17.373Z,10.05
2022-12-25T02:40:43.981Z,10.06
2022-12-25T02:43:29.379Z,10.08
2022-12-25T02:46:14.588Z,10.09
2022-12-25T02:49:00.017Z,10.12
2022-12-25T02:51:45.001Z,10.13
2022-12-25T02:54:30.143Z,10.14
2022-12-25T02:57:15.163Z,10.14
2022-12-25T03:00:00.215Z,10.15
2022-12-25T03:02:45.527Z,10.17
2022-12-25T03:05:26.937Z,10.17
2022-12-25T03:07:55.609Z,10.20
2022-12-25T03:10:40.791Z,10.21
2022-12-25T03:13:08.450Z,10.22
2022-12-25T03:16:08.122Z,10.22
2022-12-25T03:18:36.494Z,10.24
2022-12-25T03:21:21.354Z,10.25
2022-12-25T03:24:06.549Z,10.26
2022-12-25T03:26:51.917Z,10.27
2022-12-25T03:29:34.113Z,10.27
2022-12-25T03:32:01.756Z,10.28
2022-12-25T03:34:46.752Z,10.29
2022-12-25T03:37:28.157Z,10.30
2022-12-25T03:40:19.006Z,10.31
2022-12-25T03:43:04.338Z,10.32
2022-12-25T03:45:49.746Z,10.30
2022-12-25T03:51:43.850Z,10.30
2022-12-25T03:54:28.952Z,10.31
2022-12-25T03:57:13.941Z,10.33
2022-12-25T03:59:58.712Z,10.33
2022-12-25T04:02:43.722Z,10.35
2022-12-25T04:05:28.902Z,10.38
2022-12-25T04:08:14.277Z,10.38
2022-12-25T04:10:59.156Z,10.40
2022-12-25T04:13:44.111Z,10.41
2022-12-25T04:16:37.535Z,10.41
2022-12-25T04:19:22.509Z,10.41
2022-12-25T04:22:07.409Z,10.41
2022-12-25T04:24:52.887Z,10.39
2022-12-25T04:27:37.910Z,10.39
2022-12-25T04:30:23.466Z,10.40
2022-12-25T04:33:08.400Z,10.42
2022-12-25T04:35:53.280Z,10.44
2022-12-25T04:38:22.427Z,10.44
2022-12-25T04:40:50.034Z,10.43
2022-12-25T04:43:17.632Z,10.42
2022-12-25T04:45:45.196Z,10.43
2022-12-25T04:48:13.153Z,10.42
2022-12-25T04:50:40.771Z,10.41
2022-12-25T04:53:08.374Z,10.42
2022-12-25T04:55:35.952Z,10.42
2022-12-25T04:58:03.553Z,10.44
2022-12-25T05:00:31.515Z,10.45
2022-12-25T05:02:59.478Z,10.46
2022-12-25T05:05:27.213Z,10.45
2022-12-25T05:07:54.888Z,10.44
2022-12-25T05:10:22.462Z,10.42
2022-12-25T05:12:50.779Z,10.37
2022-12-25T05:15:18.565Z,10.30
2022-12-25T05:17:46.127Z,10.24
2022-12-25T05:20:13.791Z,10.18
2022-12-25T05:22:41.391Z,10.13
2022-12-25T05:25:09.344Z,10.08
2022-12-25T05:27:37.188Z,10.06
2022-12-25T05:30:04.760Z,10.03
2022-12-25T05:32:32.402Z,9.99
2022-12-25T05:35:00.878Z,9.96
2022-12-25T05:37:28.840Z,9.93
2022-12-25T05:39:56.605Z,9.91
2022-12-25T05:42:24.203Z,9.87
2022-12-25T05:44:51.798Z,9.84
2022-12-25T05:47:19.365Z,9.79
2022-12-25T05:49:47.387Z,9.75
2022-12-25T05:52:15.186Z,9.70
2022-12-25T05:54:42.784Z,9.69
2022-12-25T05:57:10.864Z,9.65
2022-12-25T05:59:38.470Z,9.63
2022-12-25T06:02:06.505Z,9.63
2022-12-25T06:04:34.448Z,9.62
2022-12-25T06:07:02.016Z,9.63
2022-12-25T06:09:29.597Z,9.61
2022-12-25T06:11:57.263Z,9.61
2022-12-25T06:14:25.204Z,9.61
2022-12-25T06:16:53.198Z,9.63
2022-12-25T06:19:20.915Z,9.63
2022-12-25T06:21:48.582Z,9.60
2022-12-25T06:24:21.003Z,9.58
2022-12-25T06:26:49.475Z,9.56
2022-12-25T06:29:17.272Z,9.56
2022-12-25T06:31:44.984Z,9.56
2022-12-25T06:34:16.356Z,9.55
2022-12-25T06:36:43.913Z,9.53
2022-12-25T06:39:11.910Z,9.50
2022-12-25T06:41:40.570Z,9.48
2022-12-25T06:44:08.132Z,9.44
2022-12-25T06:46:35.716Z,9.40
2022-12-25T06:49:03.361Z,9.36
2022-12-25T06:51:31.339Z,9.32
2022-12-25T06:53:59.199Z,9.27
2022-12-25T06:56:27.178Z,9.26
2022-12-25T06:58:54.755Z,9.22
2022-12-25T07:01:22.501Z,9.23
2022-12-25T07:03:52.457Z,9.25
2022-12-25T07:06:20.079Z,9.22
2022-12-25T07:08:47.703Z,9.20
2022-12-25T07:11:15.289Z,9.16
2022-12-25T07:13:42.863Z,9.10
2022-12-25T07:16:10.890Z,9.06
2022-12-25T07:18:38.762Z,9.04
2022-12-25T07:21:06.343Z,8.99
2022-12-25T07:23:33.955Z,8.95
2022-12-25T07:26:02.076Z,8.92
2022-12-25T07:28:29.893Z,8.90
2022-12-25T07:30:57.655Z,8.89
2022-12-25T07:33:25.327Z,8.90
2022-12-25T07:35:52.906Z,8.89
2022-12-25T07:38:20.499Z,8.89
2022-12-25T07:40:48.500Z,8.91
2022-12-25T07:43:16.252Z,8.97
2022-12-25T07:45:44.035Z,9.03
2022-12-25T07:48:16.400Z,9.09
2022-12-25T07:50:44.501Z,9.13
2022-12-25T07:53:12.497Z,9.17
2022-12-25T07:55:40.398Z,9.20
2022-12-25T07:58:07.970Z,9.23
2022-12-25T08:00:35.654Z,9.26
2022-12-25T08:03:03.445Z,9.31
2022-12-25T08:05:31.531Z,9.34
2022-12-25T08:08:00.679Z,9.39
2022-12-25T08:10:28.314Z,9.43
2022-12-25T08:12:55.945Z,9.48
2022-12-25T08:15:23.575Z,9.52
2022-12-25T08:17:51.548Z,9.58
2022-12-25T08:20:19.177Z,9.65
2022-12-25T08:22:46.767Z,9.72
2022-12-25T08:25:16.035Z,9.78
2022-12-25T08:27:43.698Z,9.82
2022-12-25T08:30:12.205Z,9.88
2022-12-25T08:32:40.187Z,9.92
2022-12-25T08:35:07.778Z,9.96
2022-12-25T08:37:35.393Z,10.01
2022-12-25T08:40:03.071Z,10.05
2022-12-25T08:42:31.028Z,10.09
2022-12-25T08:44:59.038Z,10.10
2022-12-25T08:47:26.702Z,10.14
2022-12-25T08:49:54.353Z,10.19
2022-12-25T08:52:22.160Z,10.26
2022-12-25T08:54:50.201Z,10.31
2022-12-25T08:57:18.087Z,10.33
2022-12-25T08:59:45.656Z,10.38
2022-12-25T09:02:13.439Z,10.41
2022-12-25T09:04:41.247Z,10.43
2022-12-25T09:07:09.257Z,10.46
2022-12-25T09:09:37.437Z,10.47
2022-12-25T09:12:05.421Z,10.53
2022-12-25T09:14:33.017Z,10.55
2022-12-25T09:17:00.736Z,10.57
2022-12-25T09:19:28.864Z,10.61
2022-12-25T09:21:56.807Z,10.64
2022-12-25T09:24:24.541Z,10.68
2022-12-25T09:26:52.208Z,10.72
2022-12-25T09:29:19.906Z,10.76
2022-12-25T09:31:48.174Z,10.78
2022-12-25T09:34:19.184Z,10.81
2022-12-25T09:36:46.978Z,10.83
2022-12-25T09:39:14.709Z,10.82
2022-12-25T09:41:42.409Z,10.77
2022-12-25T09:44:10.076Z,10.74
2022-12-25T09:46:38.084Z,10.70
2022-12-25T09:49:05.751Z,10.67
2022-12-25T09:51:33.417Z,10.64
2022-12-25T09:54:01.107Z,10.60
2022-12-25T09:56:29.385Z,10.61
2022-12-25T09:58:57.995Z,10.60
2022-12-25T10:01:25.835Z,10.58
2022-12-25T10:03:53.689Z,10.55
2022-12-25T10:06:21.506Z,10.56
2022-12-25T10:08:49.630Z,10.54
2022-12-25T10:11:17.762Z,10.50
2022-12-25T10:13:45.530Z,10.45
2022-12-25T10:16:13.487Z,10.42
2022-12-25T10:18:41.121Z,10.39
2022-12-25T10:21:13.058Z,10.37
2022-12-25T10:23:41.416Z,10.35
2022-12-25T10:26:09.086Z,10.34
2022-12-25T10:28:36.797Z,10.33
2022-12-25T10:31:04.678Z,10.33
2022-12-25T10:33:32.857Z,10.32
2022-12-25T10:36:00.852Z,10.32
2022-12-25T10:38:28.634Z,10.31
2022-12-25T10:40:56.766Z,10.32
2022-12-25T10:43:24.550Z,10.33
2022-12-25T10:45:52.814Z,10.34
2022-12-25T10:48:20.935Z,10.38
2022-12-25T10:50:48.756Z,10.41
2022-12-25T10:53:16.496Z,10.43
2022-12-25T10:55:44.620Z,10.43
2022-12-25T10:58:12.980Z,10.46
2022-12-25T11:00:41.053Z,10.46
2022-12-25T11:03:09.317Z,10.48
2022-12-25T11:05:37.262Z,10.49
2022-12-25T11:08:05.013Z,10.48
2022-12-25T11:10:33.391Z,10.48
2022-12-25T11:13:01.211Z,10.49
2022-12-25T11:15:28.985Z,10.48
2022-12-25T11:17:56.740Z,10.48
2022-12-25T11:20:24.489Z,10.47
2022-12-25T11:22:52.628Z,10.46
2022-12-25T11:25:21.846Z,10.46
2022-12-25T11:27:53.443Z,10.46
2022-12-25T11:30:21.594Z,10.48
2022-12-25T11:32:49.387Z,10.48
2022-12-25T11:35:17.785Z,10.50
2022-12-25T11:37:46.042Z,10.52
2022-12-25T11:40:13.848Z,10.55
2022-12-25T11:42:41.596Z,10.56
2022-12-25T11:45:09.491Z,10.59
2022-12-25T11:47:37.697Z,10.60
2022-12-25T11:50:05.630Z,10.61
2022-12-25T11:52:33.547Z,10.61
2022-12-25T11:55:01.344Z,10.62
2022-12-25T11:57:29.210Z,10.64
2022-12-25T11:59:57.122Z,10.68
2022-12-25T12:02:25.224Z,10.70
2022-12-25T12:04:53.062Z,10.72
2022-12-25T12:07:21.351Z,10.74
2022-12-25T12:09:49.125Z,10.76
2022-12-25T12:12:17.295Z,10.80
2022-12-25T12:14:45.432Z,10.81
2022-12-25T12:17:13.236Z,10.85
2022-12-25T12:19:41.111Z,10.86
2022-12-25T12:22:09.007Z,10.86
2022-12-25T12:24:37.433Z,10.87
2022-12-25T12:27:05.440Z,10.87
2022-12-25T12:29:33.811Z,10.88
2022-12-25T12:32:01.796Z,10.89
2022-12-25T12:34:29.701Z,10.90
2022-12-25T12:36:57.972Z,10.92
2022-12-25T12:39:25.945Z,10.94
2022-12-25T12:41:53.648Z,10.97
2022-12-25T12:44:22.791Z,10.97
2022-12-25T12:46:50.597Z,10.99
2022-12-25T12:49:18.824Z,10.98
2022-12-25T12:51:46.896Z,10.97
2022-12-25T12:54:14.601Z,10.96
2022-12-25T12:56:42.463Z,10.95
2022-12-25T12:59:10.448Z,10.92
2022-12-25T13:01:38.367Z,10.91
2022-12-25T13:04:06.355Z,10.90
2022-12-25T13:06:34.264Z,10.89
2022-12-25T13:09:02.183Z,10.89
2022-12-25T13:11:29.923Z,10.90
2022-12-25T13:13:58.165Z,10.92
2022-12-25T13:16:26.042Z,10.93
2022-12-25T13:18:53.841Z,10.93
2022-12-25T13:21:21.774Z,10.93
2022-12-25T13:23:49.623Z,10.94
2022-12-25T13:26:17.554Z,10.95
2022-12-25T13:28:45.760Z,10.99
2022-12-25T13:31:13.691Z,10.99
2022-12-25T13:33:42.063Z,11.02
2022-12-25T13:36:09.968Z,11.03
2022-12-25T13:38:37.781Z,11.06
2022-12-25T13:41:22.917Z,11.08
2022-12-25T13:43:50.957Z,11.09
2022-12-25T13:46:18.849Z,11.13
2022-12-25T13:48:46.780Z,11.13
2022-12-25T13:51:14.717Z,11.15
2022-12-25T13:53:42.974Z,11.17
2022-12-25T13:56:11.173Z,11.20
2022-12-25T13:58:39.725Z,11.23
2022-12-25T14:01:08.164Z,11.27
2022-12-25T14:03:36.140Z,11.30
2022-12-25T14:06:04.206Z,11.31
2022-12-25T14:08:32.346Z,11.35
2022-12-25T14:11:00.232Z,11.39
2022-12-25T14:13:28.839Z,11.42
2022-12-25T14:15:57.168Z,11.46
2022-12-25T14:18:25.060Z,11.48
2022-12-25T14:20:52.901Z,11.51
2022-12-25T14:23:20.819Z,11.55
2022-12-25T14:25:49.079Z,11.57
2022-12-25T14:28:16.883Z,11.62
2022-12-25T14:30:44.911Z,11.68
2022-12-25T14:33:12.956Z,11.71
2022-12-25T14:35:40.752Z,11.74
2022-12-25T14:38:09.293Z,11.74
2022-12-25T14:40:37.397Z,11.73
2022-12-25T14:43:05.199Z,11.69
2022-12-25T14:45:33.163Z,11.66
2022-12-25T14:48:01.184Z,11.65
2022-12-25T14:50:29.505Z,11.63
2022-12-25T14:52:57.580Z,11.59
2022-12-25T14:55:25.562Z,11.58
2022-12-25T14:57:53.833Z,11.57
2022-12-25T15:00:21.873Z,11.55
2022-12-25T15:02:50.441Z,11.53
2022-12-25T15:05:18.474Z,11.52
2022-12-25T15:07:46.385Z,11.50
2022-12-25T15:10:58.032Z,11.49
2022-12-25T15:13:02.453Z,11.47
2022-12-25T15:15:30.327Z,11.45
2022-12-25T15:17:58.219Z,11.45
2022-12-25T15:20:26.311Z,11.44
2022-12-25T15:23:18.609Z,11.45
2022-12-25T15:25:42.491Z,11.46
2022-12-25T15:28:13.044Z,11.48
2022-12-25T15:30:41.271Z,11.48
2022-12-25T15:33:09.082Z,11.51
2022-12-25T15:35:39.285Z,11.53
2022-12-25T15:38:07.454Z,11.53
2022-12-25T15:40:35.596Z,11.53
2022-12-25T15:43:11.191Z,11.55
2022-12-25T15:45:48.854Z,11.60
2022-12-25T15:48:16.851Z,11.66
2022-12-25T15:50:44.758Z,11.75
2022-12-25T15:53:13.031Z,11.81
2022-12-25T15:55:40.882Z,11.85
2022-12-25T15:58:08.580Z,11.85
2022-12-25T16:00:37.156Z,11.83
2022-12-25T16:03:05.172Z,11.82
2022-12-25T16:05:33.282Z,11.77
2022-12-25T16:08:01.018Z,11.73
2022-12-25T16:10:33.437Z,11.70
2022-12-25T16:13:05.167Z,11.69
2022-12-25T16:15:33.225Z,11.69
2022-12-25T16:18:01.420Z,11.71
2022-12-25T16:20:29.270Z,11.72
2022-12-25T16:22:57.248Z,11.74
2022-12-25T16:25:25.733Z,11.80
2022-12-25T16:27:53.702Z,11.84
2022-12-25T16:30:21.951Z,11.85
2022-12-25T16:32:49.895Z,11.90
2022-12-25T16:35:18.086Z,11.96
2022-12-25T16:37:46.456Z,11.98
2022-12-25T16:40:14.278Z,11.99
2022-12-25T16:42:43.894Z,11.98
2022-12-25T16:45:11.901Z,11.98
2022-12-25T16:47:39.786Z,11.98
2022-12-25T16:50:08.113Z,11.98
2022-12-25T16:52:35.971Z,11.99
2022-12-25T16:55:04.034Z,12.02
2022-12-25T16:57:31.863Z,12.05
2022-12-25T17:00:00.410Z,12.08
2022-12-25T17:02:28.639Z,12.14
2022-12-25T17:04:57.035Z,12.16
2022-12-25T17:07:25.340Z,12.18
2022-12-25T17:09:53.230Z,12.23
2022-12-25T17:12:21.206Z,12.28
2022-12-25T17:14:49.587Z,12.31
2022-12-25T17:17:17.412Z,12.33
2022-12-25T17:19:45.248Z,12.35
2022-12-25T17:22:13.239Z,12.39
2022-12-25T17:24:41.749Z,12.42
2022-12-25T17:27:10.367Z,12.45
2022-12-25T17:29:39.428Z,12.46
2022-12-25T17:32:07.427Z,12.46
2022-12-25T17:34:35.119Z,12.48
2022-12-25T17:37:03.037Z,12.50
2022-12-25T17:39:31.228Z,12.53
2022-12-25T17:41:59.173Z,12.56
2022-12-25T17:44:27.627Z,12.61
2022-12-25T17:46:55.432Z,12.60
2022-12-25T17:49:23.271Z,12.50
2022-12-25T17:51:51.640Z,12.44
2022-12-25T17:54:19.526Z,12.38
2022-12-25T17:56:48.158Z,12.36
2022-12-25T17:59:18.983Z,12.30
2022-12-25T18:01:47.413Z,12.28
2022-12-25T18:04:15.349Z,12.25
2022-12-25T18:06:43.443Z,12.24
2022-12-25T18:09:11.535Z,12.21
2022-12-25T18:11:39.814Z,12.18
2022-12-25T18:14:07.656Z,12.14
2022-12-25T18:16:35.943Z,12.10
2022-12-25T18:19:03.900Z,12.04
2022-12-25T18:21:32.241Z,12.01
2022-12-25T18:24:00.341Z,12.00
2022-12-25T18:26:28.996Z,12.01
2022-12-25T18:28:57.507Z,12.01
2022-12-25T18:31:25.372Z,12.08
2022-12-25T18:33:54.457Z,12.17
2022-12-25T18:36:22.402Z,12.24
2022-12-25T18:38:50.205Z,12.30
2022-12-25T18:41:18.542Z,12.35
2022-12-25T18:43:52.947Z,12.42
2022-12-25T18:46:24.807Z,12.47
2022-12-25T18:48:53.032Z,12.49
2022-12-25T18:51:21.443Z,12.51
2022-12-25T18:53:49.279Z,12.54
2022-12-25T18:56:17.857Z,12.56
2022-12-25T18:58:46.355Z,12.59
2022-12-25T19:01:14.190Z,12.61
2022-12-25T19:03:42.598Z,12.65
2022-12-25T19:06:10.301Z,12.69
2022-12-25T19:08:38.063Z,12.70
2022-12-25T19:11:05.830Z,12.73
2022-12-25T19:13:33.673Z,12.76
2022-12-25T19:16:02.257Z,12.78
2022-12-25T19:18:30.251Z,12.81
2022-12-25T19:20:58.130Z,12.83
2022-12-25T19:23:26.118Z,12.87
2022-12-25T19:25:54.026Z,12.89
2022-12-25T19:28:21.871Z,12.91
2022-12-25T19:30:49.739Z,12.95
2022-12-25T19:33:18.183Z,12.95
2022-12-25T19:35:47.014Z,12.95
2022-12-25T19:38:15.369Z,12.94
2022-12-25T19:41:00.613Z,12.95
2022-12-25T19:43:28.799Z,12.97
2022-12-25T19:45:56.694Z,12.99
2022-12-25T19:48:24.588Z,12.96
2022-12-25T19:50:52.441Z,12.91
2022-12-25T19:53:23.618Z,12.73
2022-12-25T19:55:52.669Z,12.55
2022-12-25T19:58:22.444Z,12.41
2022-12-25T20:00:50.288Z,12.28
2022-12-25T20:03:18.255Z,12.19
2022-12-25T20:05:46.555Z,12.12
2022-12-25T20:08:14.369Z,12.03
2022-12-25T20:10:42.522Z,11.96
2022-12-25T20:13:10.412Z,11.90
2022-12-25T20:15:38.190Z,11.85
2022-12-25T20:18:06.868Z,11.80
2022-12-25T20:20:34.702Z,11.76
2022-12-25T20:23:03.076Z,11.72
2022-12-25T20:25:30.875Z,11.67
2022-12-25T20:27:58.754Z,11.64
2022-12-25T20:30:27.212Z,11.61
2022-12-25T20:32:55.668Z,11.59
2022-12-25T20:35:24.204Z,11.56
2022-12-25T20:37:51.908Z,11.56
2022-12-25T20:40:20.636Z,11.55
2022-12-25T20:42:49.112Z,11.54
2022-12-25T20:45:16.975Z,11.54
2022-12-25T20:47:44.984Z,11.53
2022-12-25T20:50:12.831Z,11.51
2022-12-25T20:52:40.658Z,11.50
2022-12-25T20:55:08.912Z,11.50
2022-12-25T20:57:37.029Z,11.50
2022-12-25T21:00:05.274Z,11.49
2022-12-25T21:02:34.635Z,11.50
2022-12-25T21:05:04.426Z,11.51
2022-12-25T21:07:32.708Z,11.52
2022-12-25T21:10:00.757Z,11.52
2022-12-25T21:12:28.850Z,11.55
2022-12-25T21:14:56.627Z,11.56
2022-12-25T21:17:24.585Z,11.60
2022-12-25T21:19:52.829Z,11.63
2022-12-25T21:22:20.620Z,11.68
2022-12-25T21:24:52.194Z,11.72
2022-12-25T21:27:20.417Z,11.75
2022-12-25T21:29:48.306Z,11.78
2022-12-25T21:32:33.863Z,11.80
2022-12-25T21:35:02.018Z,11.83
2022-12-25T21:37:29.871Z,11.84
2022-12-25T21:39:57.835Z,11.84
2022-12-25T21:42:26.145Z,11.84
2022-12-25T21:44:54.433Z,11.84
2022-12-25T21:47:22.499Z,11.83
2022-12-25T21:50:13.311Z,11.83
2022-12-25T21:52:41.209Z,11.85
2022-12-25T21:55:09.689Z,11.86
2022-12-25T21:57:37.700Z,11.85
2022-12-25T22:00:05.594Z,11.83
2022-12-25T22:02:33.610Z,11.79
2022-12-25T22:05:01.601Z,11.75
2022-12-25T22:07:29.388Z,11.71
2022-12-25T22:09:57.561Z,11.67
2022-12-25T22:12:42.826Z,11.64
2022-12-25T22:15:10.663Z,11.60
2022-12-25T22:17:57.033Z,11.58
2022-12-25T22:20:25.056Z,11.56
2022-12-25T22:22:52.879Z,11.55
2022-12-25T22:25:20.728Z,11.54
2022-12-25T22:27:48.842Z,11.54
2022-12-25T22:30:16.944Z,11.53
2022-12-25T22:32:44.833Z,11.51
2022-12-25T22:35:13.649Z,11.51
2022-12-25T22:37:41.557Z,11.48
2022-12-25T22:40:09.329Z,11.45
2022-12-25T22:42:37.733Z,11.45
2022-12-25T22:45:05.517Z,11.41
2022-12-25T22:47:33.419Z,11.40
2022-12-25T22:50:01.173Z,11.36
2022-12-25T22:52:28.933Z,11.33
2022-12-25T22:54:57.103Z,11.31
2022-12-25T22:57:24.972Z,11.29
2022-12-25T22:59:53.066Z,11.26
2022-12-25T23:02:21.334Z,11.24
2022-12-25T23:04:49.307Z,11.20
2022-12-25T23:07:17.482Z,11.17
2022-12-25T23:09:45.367Z,11.14
2022-12-25T23:12:33.722Z,11.11
2022-12-25T23:15:00.444Z,11.12
2022-12-25T23:17:45.961Z,11.11
2022-12-25T23:20:30.505Z,11.10
2022-12-25T23:23:15.405Z,11.10
2022-12-25T23:26:00.445Z,11.10
2022-12-25T23:28:45.728Z,11.10
2022-12-25T23:31:13.609Z,11.11
2022-12-25T23:33:41.714Z,11.10
2022-12-25T23:36:09.473Z,11.11
2022-12-25T23:38:37.222Z,11.11
2022-12-25T23:41:05.308Z,11.12
2022-12-25T23:43:33.383Z,11.15
2022-12-25T23:46:01.310Z,11.17
2022-12-25T23:48:29.052Z,11.20
2022-12-25T23:50:56.704Z,11.22
2022-12-25T23:53:24.871Z,11.22
2022-12-25T23:55:55.953Z,11.23
2022-12-25T23:58:23.833Z,11.23
